• Join FlightAware (Why Join?)
  • Login
  • US Flag 
01:59AM EST


 

Airport Tracker/Info


-or-


 

Live Flight TrackerFlight Track Log ✈ SWA161 ✈ 22-Apr-2013 ✈ KBNA - KRDU

Flight Track Log - Related Links

Times and Time Zones

All times are in EDT time to prevent confusion due to time zone crossing. See the SWA161 flight status page for this flight to view local times or setup timezone preferences in your user account.

Time Position Orientation Groundspeed Altitude Reporting Facility
EDT Latitude Longitude Course Direction KTS MPH feet Rate Location/Type
10:27PM 36.1000 -86.6833 180° South 153 176 1,400  Level Nashville TRACON
10:27PM 36.0833 -86.6833 180° South 164 189 2,200 1,800 Climbing Nashville TRACON
10:28PM 36.0647 -86.6208 110° East 203 234 4,000 2,520 Climbing Memphis Center
10:29PM 36.0683 -86.5308 87° East 239 275 7,400 3,240 Climbing Memphis Center
10:30PM 36.0672 -86.4333 91° East 267 307 10,500 3,120 Climbing Memphis Center
10:31PM 36.0697 -86.3178 88° East 307 353 13,700 3,180 Climbing Memphis Center
10:32PM 36.0700 -86.1997 90° East 335 386 16,900 2,820 Climbing Memphis Center
10:33PM 36.0700 -86.0711 90° East 363 418 19,400 2,400 Climbing Memphis Center
10:36PM 36.0464 -85.7594 95° East 396 456 25,000 2,280 Climbing Atlanta Center
10:37PM 36.0378 -85.6153 94° East 408 470 27,000 1,860 Climbing Atlanta Center
10:38PM 36.0269 -85.4689 95° East 413 475 28,800 1,620 Climbing Atlanta Center
10:39PM 36.0161 -85.3147 95° East 433 498 30,300 1,500 Climbing Atlanta Center
10:40PM 36.0053 -85.1606 95° East 445 512 31,900 1,500 Climbing Atlanta Center
10:41PM 35.9939 -85.0036 95° East 445 512 33,400 1,380 Climbing Atlanta Center
10:42PM 35.9828 -84.8444 95° East 456 525 34,700 1,200 Climbing Atlanta Center
10:43PM 35.9692 -84.6700 95° East 463 533 35,800 1,140 Climbing Atlanta Center
10:44PM 35.9553 -84.5133 96° East 463 533 37,000 600 Climbing Atlanta Center
10:45PM 35.9411 -84.3542 96° East 463 533 37,000  Level Atlanta Center
10:46PM 35.9308 -84.1978 95° East 463 533 37,000  Level Atlanta Center
10:47PM 35.9164 -84.0389 96° East 463 533 37,000  Level Atlanta Center
10:48PM 35.9142 -83.8822 91° East 463 533 37,000  Level Atlanta Center
10:49PM 35.9619 -83.7411 67° East 436 502 37,000  Level Atlanta Center
10:50PM 36.0136 -83.5972 66° East 436 502 37,000  Level Atlanta Center
10:51PM 36.0611 -83.4711 65° Northeast 453 521 37,000  Level Atlanta Center
10:52PM 36.1167 -83.3242 65° Northeast 463 533 37,000  Level Atlanta Center
10:53PM 36.1678 -83.1797 66° East 458 527 37,000  Level Atlanta Center
10:54PM 36.2189 -83.0350 66° East 458 527 37,000  Level Atlanta Center
10:55PM 36.2719 -82.8903 66° East 458 527 37,000  Level Atlanta Center
10:56PM 36.3225 -82.7478 66° East 458 527 37,000  Level Atlanta Center
10:57PM 36.3753 -82.6050 65° Northeast 458 527 37,000  Level Atlanta Center
10:58PM 36.4278 -82.4569 66° East 458 527 37,000  Level Atlanta Center
10:59PM 36.4778 -82.3114 67° East 460 529 37,000  Level Atlanta Center
11:00PM 36.5300 -82.1683 66° East 460 529 37,000  Level Atlanta Center
11:01PM 36.5819 -82.0197 66° East 460 529 37,000 -60 Level Atlanta Center
11:02PM 36.6356 -81.8733 65° Northeast 465 535 36,900 -600 Descending Atlanta Center
11:03PM 36.6744 -81.7197 72° East 460 529 35,900 -1,080 Descending Atlanta Center
11:04PM 36.7169 -81.5475 73° East 462 532 34,800 -1,020 Descending Atlanta Center
11:05PM 36.7514 -81.3936 74° East 457 526 33,900 -900 Descending Atlanta Center
11:06PM 36.7797 -81.2606 75° East 456 525 33,000 -960 Descending Atlanta Center
11:08PM 36.8572 -80.9264 74° East 486 559 31,000 -960 Descending Washington Center
11:09PM 36.8886 -80.7806 75° East 463 533 30,100 -960 Descending Washington Center
11:10PM 36.9244 -80.6272 74° East 452 520 29,100 -1,380 Descending Washington Center
11:11PM 36.9508 -80.4936 76° East 447 514 27,400 -1,380 Descending Washington Center
11:12PM 36.9839 -80.3475 74° East 447 514 26,400 -960 Descending Washington Center
11:13PM 37.0122 -80.2064 76° East 435 501 25,500 -960 Descending Washington Center
11:14PM 37.0408 -80.0572 76° East 430 495 24,500 -1,080 Descending Washington Center
11:15PM 36.9944 -79.9036 111° Southeast 411 473 23,400 -1,020 Descending Washington Center
11:16PM 36.9450 -79.7683 115° Southeast 419 482 22,500 -960 Descending Washington Center
11:17PM 36.8975 -79.6331 114° Southeast 419 482 21,500 -1,020 Descending Washington Center
11:18PM 36.8575 -79.5169 113° Southeast 419 482 20,500 -1,020 Descending Washington Center
11:19PM 36.8114 -79.3925 115° Southeast 403 464 19,500 -960 Descending Washington Center
11:20PM 36.7653 -79.2683 115° Southeast 397 457 18,600 -900 Descending Washington Center
11:21PM 36.7192 -79.1392 114° Southeast 382 440 17,800 -900 Descending Washington Center
11:21PM 36.6958 -79.0761 115° Southeast 376 433 17,200 -780 Descending Washington Center
11:22PM 36.6722 -79.0233 119° Southeast 380 437 17,000 -540 Descending Washington Center
11:22PM 36.6189 -78.9975 159° South 345 397 16,700 -1,260 Descending Washington Center
11:23PM 36.5814 -78.9908 172° South 326 375 15,800 -2,280 Descending Washington Center
11:23PM 36.5236 -78.9700 164° South 338 389 14,400 -2,400 Descending Washington Center
11:24PM 36.4906 -78.9636 171° South 326 375 13,400 -2,280 Descending Washington Center
11:24PM 36.4306 -78.9456 166° South 347 399 12,100 -1,380 Descending Washington Center
11:25PM 36.3994 -78.9364 167° South 332 382 12,100  Level Washington Center
11:25PM 36.3414 -78.9183 166° South 325 374 12,100  Level Washington Center
11:26PM 36.3186 -78.9122 168° South 337 388 12,100 -1,380 Level Washington Center
11:26PM 36.2544 -78.8967 169° South 326 375 10,700 -1,800 Descending Washington Center
11:27PM 36.2192 -78.8850 165° South 332 382 10,300 -1,140 Descending Washington Center
11:27PM 36.1736 -78.8728 168° South 294 338 9,600 -1,200 Descending Washington Center
11:28PM 36.1489 -78.8639 164° South 303 349 9,100 -1,200 Descending Washington Center
11:28PM 36.0972 -78.8517 169° South 263 303 8,400 -1,020 Descending Washington Center
11:29PM 36.0744 -78.8456 168° South 278 320 8,100 -300 Descending Washington Center
11:29PM 36.0286 -78.8411 176° South 231 266 8,100  Level Washington Center
11:30PM 36.0097 -78.8428 184° South 249 287 8,100 -1,020 Level Washington Center
11:30PM 35.9656 -78.8514 189° South 231 266 7,100 -1,260 Descending Washington Center
11:31PM 35.9142 -78.9006 218° Southwest 233 268 6,000 -1,260 Descending Washington Center
11:32PM 35.8689 -78.9575 226° Southwest 234 269 4,600 -1,380 Descending Washington Center
11:33PM 35.8128 -79.0192 222° Southwest 251 289 3,100 -840 Descending Washington Center
11:35PM 35.7661 -78.9736 142° Southeast 168 193 2,800 -300 Descending Washington Center
11:36PM 35.7694 -78.9250 85° East 152 175 2,500 -240 Descending Washington Center
11:37PM 35.7981 -78.8803 52° Northeast 139 160 2,300 -480 Descending Washington Center
11:38PM 35.8217 -78.8478 48° Northeast 129 148 1,600 -720 Descending Washington Center
11:39PM 35.8475 -78.8183 43° Northeast 124 143 900 -720 Descending Washington Center
11:41PM 35.8667 -78.7833 90° East  Level FlightAware Approximate